Weather at Ronald Reagan Washington National Airport

Public forecast

Using degrees Fahrenheit for public forecast. Weather courtesy of forecast.io.

Current aviation weather report (METAR) for Ronald Reagan Washington National Airport

2024/02/25 03:52 (retrieved 58 minutes ago)

KDCA 250352Z 34007KT 10SM FEW044 FEW150 02/M04 A3002 RMK AO2 SLP166 T00171044

Closest aviation forecast (TAF) to Ronald Reagan Washington National Airport

Forecast is more than 12 hours old.

Closest forecast is Davison Army Air Field, 10.6 nm (19.7 km) SW.

2024/02/23 21:57 (retrieved 1 day ago)

TAF KDAA 232100Z 2321/2503 33012KT 9999 SCT020 BKN035 BKN200 510102 QNH2945INS BECMG 2322/2323 32008KT 9999 FEW025 BKN200 510102 QNH2948INS BECMG 2410/2411 32006KT 9999 VCSH SCT015 BKN030 OVC050 620507 QNH2960INS BECMG 2413/2414 36012G18KT 9999 NSW SCT020 BKN050 620503 QNH2965INS BECMG 2421/2422 35006KT 9999 SCT120 QNH2980INS TX11/2321Z TN05/2411Z LAST NO AMDS AFT 2402 NEXT 2613